sensor_id;sensor_type;location;lat;lon;timestamp;P1;durP1;ratioP1;P2;durP2;ratioP2
23410;SDS011;11878;51.774;7.220;2023-04-03T00:01:33;2.23;;;0.97;;
23410;SDS011;11878;51.774;7.220;2023-04-03T00:04:36;2.27;;;1.13;;
23410;SDS011;11878;51.774;7.220;2023-04-03T00:07:38;3.67;;;1.00;;
23410;SDS011;11878;51.774;7.220;2023-04-03T00:10:39;2.27;;;1.00;;
23410;SDS011;11878;51.774;7.220;2023-04-03T00:13:41;2.70;;;1.30;;
23410;SDS011;11878;51.774;7.220;2023-04-03T00:16:43;6.57;;;1.20;;
23410;SDS011;11878;51.774;7.220;2023-04-03T00:19:45;1.87;;;1.00;;
23410;SDS011;11878;51.774;7.220;2023-04-03T00:22:47;2.53;;;1.13;;
23410;SDS011;11878;51.774;7.220;2023-04-03T00:25:49;3.20;;;1.10;;
23410;SDS011;11878;51.774;7.220;2023-04-03T00:28:53;4.47;;;1.27;;
23410;SDS011;11878;51.774;7.220;2023-04-03T00:31:55;4.43;;;1.57;;
23410;SDS011;11878;51.774;7.220;2023-04-03T00:34:56;5.77;;;1.33;;
23410;SDS011;11878;51.774;7.220;2023-04-03T00:37:58;1.37;;;0.70;;
23410;SDS011;11878;51.774;7.220;2023-04-03T00:47:58;3.10;;;1.10;;
23410;SDS011;11878;51.774;7.220;2023-04-03T00:51:03;2.33;;;1.00;;
23410;SDS011;11878;51.774;7.220;2023-04-03T00:54:07;2.47;;;0.83;;
23410;SDS011;11878;51.774;7.220;2023-04-03T00:57:09;1.90;;;0.80;;
23410;SDS011;11878;51.774;7.220;2023-04-03T01:00:13;3.60;;;0.60;;
23410;SDS011;11878;51.774;7.220;2023-04-03T01:03:18;3.10;;;0.90;;
23410;SDS011;11878;51.774;7.220;2023-04-03T01:06:21;2.53;;;1.07;;
23410;SDS011;11878;51.774;7.220;2023-04-03T01:09:27;1.20;;;0.87;;
23410;SDS011;11878;51.774;7.220;2023-04-03T01:12:32;5.30;;;0.90;;
23410;SDS011;11878;51.774;7.220;2023-04-03T01:15:47;2.30;;;0.93;;
23410;SDS011;11878;51.774;7.220;2023-04-03T01:18:49;3.83;;;1.00;;
23410;SDS011;11878;51.774;7.220;2023-04-03T01:25:20;3.63;;;0.90;;
23410;SDS011;11878;51.774;7.220;2023-04-03T01:28:33;1.70;;;0.73;;
23410;SDS011;11878;51.774;7.220;2023-04-03T01:34:55;2.00;;;0.97;;
23410;SDS011;11878;51.774;7.220;2023-04-03T01:37:57;3.40;;;0.70;;
23410;SDS011;11878;51.774;7.220;2023-04-03T01:40:59;5.40;;;1.10;;
23410;SDS011;11878;51.774;7.220;2023-04-03T01:44:01;1.23;;;0.73;;
23410;SDS011;11878;51.774;7.220;2023-04-03T01:47:05;5.70;;;0.97;;
23410;SDS011;11878;51.774;7.220;2023-04-03T01:50:08;2.53;;;0.90;;
23410;SDS011;11878;51.774;7.220;2023-04-03T01:53:11;1.37;;;0.60;;
23410;SDS011;11878;51.774;7.220;2023-04-03T01:56:14;3.07;;;1.13;;
23410;SDS011;11878;51.774;7.220;2023-04-03T01:59:16;1.37;;;0.60;;
23410;SDS011;11878;51.774;7.220;2023-04-03T02:05:28;1.70;;;0.60;;
23410;SDS011;11878;51.774;7.220;2023-04-03T02:08:36;3.03;;;0.93;;
23410;SDS011;11878;51.774;7.220;2023-04-03T02:14:45;1.17;;;0.90;;
23410;SDS011;11878;51.774;7.220;2023-04-03T02:17:47;3.33;;;0.80;;
23410;SDS011;11878;51.774;7.220;2023-04-03T02:20:49;2.93;;;0.87;;
23410;SDS011;11878;51.774;7.220;2023-04-03T02:23:50;4.43;;;1.00;;
23410;SDS011;11878;51.774;7.220;2023-04-03T02:26:53;3.00;;;1.10;;
23410;SDS011;11878;51.774;7.220;2023-04-03T02:29:54;5.03;;;0.60;;
23410;SDS011;11878;51.774;7.220;2023-04-03T02:32:56;4.20;;;1.03;;
23410;SDS011;11878;51.774;7.220;2023-04-03T02:35:59;5.20;;;0.97;;
23410;SDS011;11878;51.774;7.220;2023-04-03T02:39:02;2.23;;;0.90;;
23410;SDS011;11878;51.774;7.220;2023-04-03T02:42:04;2.40;;;0.83;;
23410;SDS011;11878;51.774;7.220;2023-04-03T02:45:07;2.63;;;1.00;;
23410;SDS011;11878;51.774;7.220;2023-04-03T02:48:09;3.23;;;0.80;;
23410;SDS011;11878;51.774;7.220;2023-04-03T02:51:11;2.57;;;0.90;;
23410;SDS011;11878;51.774;7.220;2023-04-03T02:54:13;4.17;;;1.27;;
23410;SDS011;11878;51.774;7.220;2023-04-03T02:57:20;2.27;;;0.80;;
23410;SDS011;11878;51.774;7.220;2023-04-03T03:00:22;2.37;;;1.00;;
23410;SDS011;11878;51.774;7.220;2023-04-03T03:03:24;3.37;;;1.47;;
23410;SDS011;11878;51.774;7.220;2023-04-03T03:06:26;5.47;;;0.80;;
23410;SDS011;11878;51.774;7.220;2023-04-03T03:09:28;4.67;;;1.13;;
23410;SDS011;11878;51.774;7.220;2023-04-03T03:12:30;7.53;;;0.97;;
23410;SDS011;11878;51.774;7.220;2023-04-03T03:15:34;6.60;;;1.00;;
23410;SDS011;11878;51.774;7.220;2023-04-03T03:18:36;3.23;;;1.07;;
23410;SDS011;11878;51.774;7.220;2023-04-03T03:21:38;1.50;;;0.70;;
23410;SDS011;11878;51.774;7.220;2023-04-03T03:24:40;1.97;;;0.83;;
23410;SDS011;11878;51.774;7.220;2023-04-03T03:27:42;4.73;;;1.57;;
23410;SDS011;11878;51.774;7.220;2023-04-03T03:30:44;7.17;;;1.17;;
23410;SDS011;11878;51.774;7.220;2023-04-03T03:33:48;2.83;;;1.07;;
23410;SDS011;11878;51.774;7.220;2023-04-03T03:36:49;2.07;;;0.93;;
23410;SDS011;11878;51.774;7.220;2023-04-03T03:39:51;5.43;;;1.13;;
23410;SDS011;11878;51.774;7.220;2023-04-03T03:42:53;4.33;;;1.07;;
23410;SDS011;11878;51.774;7.220;2023-04-03T03:45:55;5.23;;;1.10;;
23410;SDS011;11878;51.774;7.220;2023-04-03T03:48:58;2.07;;;0.90;;
23410;SDS011;11878;51.774;7.220;2023-04-03T03:52:00;7.07;;;0.80;;
23410;SDS011;11878;51.774;7.220;2023-04-03T03:55:02;2.10;;;0.97;;
23410;SDS011;11878;51.774;7.220;2023-04-03T03:58:05;8.87;;;1.47;;
23410;SDS011;11878;51.774;7.220;2023-04-03T04:04:40;4.50;;;1.00;;
23410;SDS011;11878;51.774;7.220;2023-04-03T04:07:43;1.00;;;0.80;;
23410;SDS011;11878;51.774;7.220;2023-04-03T04:10:45;2.77;;;0.87;;
23410;SDS011;11878;51.774;7.220;2023-04-03T04:13:50;1.60;;;0.93;;
23410;SDS011;11878;51.774;7.220;2023-04-03T04:16:54;2.40;;;0.83;;
23410;SDS011;11878;51.774;7.220;2023-04-03T04:19:59;3.07;;;0.93;;
23410;SDS011;11878;51.774;7.220;2023-04-03T04:23:02;2.67;;;1.00;;
23410;SDS011;11878;51.774;7.220;2023-04-03T04:29:42;1.03;;;0.73;;
23410;SDS011;11878;51.774;7.220;2023-04-03T04:32:44;6.60;;;0.90;;
23410;SDS011;11878;51.774;7.220;2023-04-03T04:39:25;1.53;;;0.73;;
23410;SDS011;11878;51.774;7.220;2023-04-03T04:42:30;4.90;;;0.80;;
23410;SDS011;11878;51.774;7.220;2023-04-03T04:52:23;4.70;;;1.07;;
23410;SDS011;11878;51.774;7.220;2023-04-03T04:58:56;0.97;;;0.80;;
23410;SDS011;11878;51.774;7.220;2023-04-03T05:01:59;3.13;;;1.00;;
23410;SDS011;11878;51.774;7.220;2023-04-03T05:05:02;6.53;;;1.37;;
23410;SDS011;11878;51.774;7.220;2023-04-03T05:08:06;4.40;;;0.90;;
23410;SDS011;11878;51.774;7.220;2023-04-03T05:11:12;1.67;;;0.70;;
23410;SDS011;11878;51.774;7.220;2023-04-03T05:14:15;5.33;;;1.30;;
23410;SDS011;11878;51.774;7.220;2023-04-03T05:20:27;0.90;;;0.60;;
23410;SDS011;11878;51.774;7.220;2023-04-03T05:23:29;2.67;;;1.20;;
23410;SDS011;11878;51.774;7.220;2023-04-03T05:39:58;1.00;;;0.77;;
23410;SDS011;11878;51.774;7.220;2023-04-03T05:43:01;7.57;;;1.30;;
23410;SDS011;11878;51.774;7.220;2023-04-03T05:49:38;2.80;;;0.90;;
23410;SDS011;11878;51.774;7.220;2023-04-03T05:52:45;6.60;;;1.20;;
23410;SDS011;11878;51.774;7.220;2023-04-03T05:55:50;10.30;;;1.87;;
23410;SDS011;11878;51.774;7.220;2023-04-03T06:02:30;3.13;;;0.83;;
23410;SDS011;11878;51.774;7.220;2023-04-03T06:51:19;3.93;;;1.03;;
23410;SDS011;11878;51.774;7.220;2023-04-03T06:54:23;3.63;;;1.10;;
23410;SDS011;11878;51.774;7.220;2023-04-03T06:57:25;3.40;;;0.83;;
23410;SDS011;11878;51.774;7.220;2023-04-03T07:00:27;9.73;;;1.07;;
23410;SDS011;11878;51.774;7.220;2023-04-03T07:07:00;1.83;;;0.80;;
23410;SDS011;11878;51.774;7.220;2023-04-03T07:17:17;3.77;;;1.20;;
23410;SDS011;11878;51.774;7.220;2023-04-03T07:20:19;7.37;;;1.43;;
23410;SDS011;11878;51.774;7.220;2023-04-03T07:23:21;5.70;;;1.20;;
23410;SDS011;11878;51.774;7.220;2023-04-03T07:29:54;5.50;;;1.30;;
23410;SDS011;11878;51.774;7.220;2023-04-03T07:32:57;4.87;;;1.20;;
23410;SDS011;11878;51.774;7.220;2023-04-03T07:39:22;4.97;;;1.30;;
23410;SDS011;11878;51.774;7.220;2023-04-03T07:42:24;3.90;;;1.33;;
23410;SDS011;11878;51.774;7.220;2023-04-03T07:45:29;5.83;;;1.27;;
23410;SDS011;11878;51.774;7.220;2023-04-03T07:48:30;4.47;;;1.10;;
23410;SDS011;11878;51.774;7.220;2023-04-03T07:58:42;1.80;;;0.80;;
23410;SDS011;11878;51.774;7.220;2023-04-03T08:01:44;7.40;;;1.13;;
23410;SDS011;11878;51.774;7.220;2023-04-03T08:18:49;7.03;;;1.03;;
23410;SDS011;11878;51.774;7.220;2023-04-03T08:21:51;2.53;;;0.83;;
23410;SDS011;11878;51.774;7.220;2023-04-03T08:24:53;1.73;;;0.90;;
23410;SDS011;11878;51.774;7.220;2023-04-03T08:45:52;2.67;;;1.07;;
23410;SDS011;11878;51.774;7.220;2023-04-03T09:03:32;2.77;;;0.93;;
23410;SDS011;11878;51.774;7.220;2023-04-03T09:10:01;4.93;;;1.10;;
23410;SDS011;11878;51.774;7.220;2023-04-03T09:34:44;4.93;;;1.00;;
23410;SDS011;11878;51.774;7.220;2023-04-03T09:37:49;1.70;;;0.83;;
23410;SDS011;11878;51.774;7.220;2023-04-03T09:44:36;2.27;;;0.80;;
23410;SDS011;11878;51.774;7.220;2023-04-03T09:47:39;2.13;;;0.97;;
23410;SDS011;11878;51.774;7.220;2023-04-03T09:57:41;2.80;;;0.60;;
23410;SDS011;11878;51.774;7.220;2023-04-03T10:00:43;1.67;;;0.70;;
23410;SDS011;11878;51.774;7.220;2023-04-03T10:14:16;6.67;;;0.97;;
23410;SDS011;11878;51.774;7.220;2023-04-03T10:17:22;2.70;;;0.77;;
23410;SDS011;11878;51.774;7.220;2023-04-03T10:27:36;1.43;;;0.60;;
23410;SDS011;11878;51.774;7.220;2023-04-03T10:34:33;2.17;;;0.80;;
23410;SDS011;11878;51.774;7.220;2023-04-03T10:44:29;2.10;;;0.63;;
23410;SDS011;11878;51.774;7.220;2023-04-03T10:51:28;0.83;;;0.40;;
23410;SDS011;11878;51.774;7.220;2023-04-03T11:01:42;1.93;;;0.60;;
23410;SDS011;11878;51.774;7.220;2023-04-03T11:04:48;1.67;;;0.60;;
23410;SDS011;11878;51.774;7.220;2023-04-03T11:08:36;2.87;;;0.60;;
23410;SDS011;11878;51.774;7.220;2023-04-03T11:11:38;1.73;;;0.70;;
23410;SDS011;11878;51.774;7.220;2023-04-03T11:14:43;1.30;;;0.50;;
23410;SDS011;11878;51.774;7.220;2023-04-03T11:24:50;1.33;;;0.60;;
23410;SDS011;11878;51.774;7.220;2023-04-03T11:28:14;1.47;;;0.50;;
23410;SDS011;11878;51.774;7.220;2023-04-03T11:35:04;1.67;;;0.83;;
23410;SDS011;11878;51.774;7.220;2023-04-03T11:38:14;1.80;;;0.70;;
23410;SDS011;11878;51.774;7.220;2023-04-03T11:41:33;2.63;;;0.80;;
23410;SDS011;11878;51.774;7.220;2023-04-03T11:44:39;2.70;;;0.60;;
23410;SDS011;11878;51.774;7.220;2023-04-03T12:08:23;3.13;;;0.57;;
23410;SDS011;11878;51.774;7.220;2023-04-03T12:29:41;3.33;;;0.73;;
23410;SDS011;11878;51.774;7.220;2023-04-03T12:51:37;0.93;;;0.53;;
23410;SDS011;11878;51.774;7.220;2023-04-03T12:58:13;3.60;;;0.60;;
23410;SDS011;11878;51.774;7.220;2023-04-03T13:22:28;4.53;;;0.77;;
23410;SDS011;11878;51.774;7.220;2023-04-03T13:25:36;1.37;;;0.60;;
23410;SDS011;11878;51.774;7.220;2023-04-03T13:28:44;1.73;;;0.60;;
23410;SDS011;11878;51.774;7.220;2023-04-03T13:31:48;3.00;;;0.80;;
23410;SDS011;11878;51.774;7.220;2023-04-03T13:34:56;3.10;;;0.60;;
23410;SDS011;11878;51.774;7.220;2023-04-03T13:41:35;2.20;;;0.40;;
23410;SDS011;11878;51.774;7.220;2023-04-03T13:44:39;1.97;;;0.60;;
23410;SDS011;11878;51.774;7.220;2023-04-03T13:47:44;2.97;;;0.50;;
23410;SDS011;11878;51.774;7.220;2023-04-03T13:50:58;2.67;;;1.03;;
23410;SDS011;11878;51.774;7.220;2023-04-03T13:54:32;2.50;;;0.60;;
23410;SDS011;11878;51.774;7.220;2023-04-03T14:04:10;2.78;;;0.60;;
23410;SDS011;11878;51.774;7.220;2023-04-03T14:07:15;1.30;;;0.50;;
23410;SDS011;11878;51.774;7.220;2023-04-03T14:10:23;3.95;;;0.82;;
23410;SDS011;11878;51.774;7.220;2023-04-03T14:13:26;4.13;;;0.93;;
23410;SDS011;11878;51.774;7.220;2023-04-03T14:38:05;2.20;;;0.70;;
23410;SDS011;11878;51.774;7.220;2023-04-03T14:42:38;1.83;;;0.63;;
23410;SDS011;11878;51.774;7.220;2023-04-03T14:45:46;4.97;;;0.93;;
23410;SDS011;11878;51.774;7.220;2023-04-03T14:48:49;3.87;;;0.93;;
23410;SDS011;11878;51.774;7.220;2023-04-03T14:51:51;3.27;;;0.90;;
23410;SDS011;11878;51.774;7.220;2023-04-03T14:54:54;3.33;;;0.90;;
23410;SDS011;11878;51.774;7.220;2023-04-03T14:57:59;2.63;;;0.68;;
23410;SDS011;11878;51.774;7.220;2023-04-03T15:01:01;3.83;;;0.70;;
23410;SDS011;11878;51.774;7.220;2023-04-03T15:04:17;2.83;;;0.63;;
23410;SDS011;11878;51.774;7.220;2023-04-03T15:07:21;2.63;;;0.60;;
23410;SDS011;11878;51.774;7.220;2023-04-03T15:10:30;2.88;;;0.80;;
23410;SDS011;11878;51.774;7.220;2023-04-03T15:13:38;3.50;;;0.93;;
23410;SDS011;11878;51.774;7.220;2023-04-03T15:16:42;2.45;;;0.73;;
23410;SDS011;11878;51.774;7.220;2023-04-03T15:19:44;2.67;;;0.85;;
23410;SDS011;11878;51.774;7.220;2023-04-03T15:22:59;2.30;;;0.93;;
23410;SDS011;11878;51.774;7.220;2023-04-03T15:26:07;1.55;;;0.70;;
23410;SDS011;11878;51.774;7.220;2023-04-03T15:29:12;2.53;;;0.75;;
23410;SDS011;11878;51.774;7.220;2023-04-03T15:32:14;4.07;;;1.05;;
23410;SDS011;11878;51.774;7.220;2023-04-03T15:35:17;2.70;;;1.10;;
23410;SDS011;11878;51.774;7.220;2023-04-03T15:38:20;3.13;;;0.82;;
23410;SDS011;11878;51.774;7.220;2023-04-03T15:41:24;4.18;;;0.82;;
23410;SDS011;11878;51.774;7.220;2023-04-03T15:44:32;3.60;;;0.70;;
23410;SDS011;11878;51.774;7.220;2023-04-03T15:47:41;3.47;;;0.90;;
23410;SDS011;11878;51.774;7.220;2023-04-03T15:50:44;1.42;;;0.50;;
23410;SDS011;11878;51.774;7.220;2023-04-03T15:54:06;4.53;;;0.98;;
23410;SDS011;11878;51.774;7.220;2023-04-03T15:57:08;1.83;;;0.70;;
23410;SDS011;11878;51.774;7.220;2023-04-03T16:00:11;3.33;;;0.80;;
23410;SDS011;11878;51.774;7.220;2023-04-03T16:03:19;2.65;;;0.60;;
23410;SDS011;11878;51.774;7.220;2023-04-03T16:06:22;2.13;;;0.70;;
23410;SDS011;11878;51.774;7.220;2023-04-03T16:09:36;1.80;;;0.52;;
23410;SDS011;11878;51.774;7.220;2023-04-03T16:12:37;2.72;;;0.82;;
23410;SDS011;11878;51.774;7.220;2023-04-03T16:15:40;3.10;;;0.88;;
23410;SDS011;11878;51.774;7.220;2023-04-03T16:18:43;3.05;;;1.00;;
23410;SDS011;11878;51.774;7.220;2023-04-03T16:21:48;2.70;;;0.80;;
23410;SDS011;11878;51.774;7.220;2023-04-03T16:28:10;1.83;;;0.60;;
23410;SDS011;11878;51.774;7.220;2023-04-03T16:56:03;3.10;;;1.30;;
23410;SDS011;11878;51.774;7.220;2023-04-03T17:13:02;4.63;;;1.23;;
23410;SDS011;11878;51.774;7.220;2023-04-03T17:19:35;5.43;;;1.53;;
23410;SDS011;11878;51.774;7.220;2023-04-03T17:29:40;2.97;;;0.80;;
23410;SDS011;11878;51.774;7.220;2023-04-03T17:43:14;4.47;;;1.50;;
23410;SDS011;11878;51.774;7.220;2023-04-03T17:46:16;5.17;;;1.20;;
23410;SDS011;11878;51.774;7.220;2023-04-03T17:49:18;3.23;;;1.10;;
23410;SDS011;11878;51.774;7.220;2023-04-03T18:02:54;3.90;;;1.20;;
23410;SDS011;11878;51.774;7.220;2023-04-03T18:05:56;4.10;;;1.03;;
23410;SDS011;11878;51.774;7.220;2023-04-03T18:09:07;2.93;;;0.80;;
23410;SDS011;11878;51.774;7.220;2023-04-03T18:23:00;4.23;;;1.23;;
23410;SDS011;11878;51.774;7.220;2023-04-03T18:26:02;2.47;;;1.10;;
23410;SDS011;11878;51.774;7.220;2023-04-03T18:29:05;5.97;;;1.37;;
23410;SDS011;11878;51.774;7.220;2023-04-03T18:32:09;5.00;;;1.77;;
23410;SDS011;11878;51.774;7.220;2023-04-03T18:35:14;7.80;;;1.77;;
23410;SDS011;11878;51.774;7.220;2023-04-03T18:38:15;3.73;;;1.73;;
23410;SDS011;11878;51.774;7.220;2023-04-03T18:41:17;9.00;;;1.80;;
23410;SDS011;11878;51.774;7.220;2023-04-03T18:44:22;6.83;;;1.37;;
23410;SDS011;11878;51.774;7.220;2023-04-03T18:47:26;6.10;;;1.40;;
23410;SDS011;11878;51.774;7.220;2023-04-03T18:50:28;4.73;;;2.20;;
23410;SDS011;11878;51.774;7.220;2023-04-03T18:53:30;5.13;;;2.13;;
23410;SDS011;11878;51.774;7.220;2023-04-03T18:56:32;8.97;;;2.47;;
23410;SDS011;11878;51.774;7.220;2023-04-03T18:59:34;6.97;;;2.07;;
23410;SDS011;11878;51.774;7.220;2023-04-03T19:02:36;4.73;;;2.00;;
23410;SDS011;11878;51.774;7.220;2023-04-03T19:05:37;6.43;;;2.50;;
23410;SDS011;11878;51.774;7.220;2023-04-03T19:08:39;6.13;;;2.10;;
23410;SDS011;11878;51.774;7.220;2023-04-03T19:11:41;10.23;;;2.67;;
23410;SDS011;11878;51.774;7.220;2023-04-03T19:14:49;4.53;;;2.00;;
23410;SDS011;11878;51.774;7.220;2023-04-03T19:21:30;6.57;;;2.57;;
23410;SDS011;11878;51.774;7.220;2023-04-03T19:24:33;3.40;;;1.83;;
23410;SDS011;11878;51.774;7.220;2023-04-03T19:27:35;6.40;;;2.37;;
23410;SDS011;11878;51.774;7.220;2023-04-03T19:30:37;7.13;;;2.90;;
23410;SDS011;11878;51.774;7.220;2023-04-03T19:33:40;5.87;;;2.00;;
23410;SDS011;11878;51.774;7.220;2023-04-03T19:36:42;11.07;;;2.10;;
23410;SDS011;11878;51.774;7.220;2023-04-03T19:39:45;4.47;;;2.13;;
23410;SDS011;11878;51.774;7.220;2023-04-03T19:42:47;8.13;;;2.67;;
23410;SDS011;11878;51.774;7.220;2023-04-03T19:45:48;17.87;;;4.73;;
23410;SDS011;11878;51.774;7.220;2023-04-03T19:48:50;11.20;;;4.37;;
23410;SDS011;11878;51.774;7.220;2023-04-03T19:51:52;16.17;;;5.87;;
23410;SDS011;11878;51.774;7.220;2023-04-03T19:54:54;13.17;;;5.80;;
23410;SDS011;11878;51.774;7.220;2023-04-03T20:05:04;14.57;;;6.03;;
23410;SDS011;11878;51.774;7.220;2023-04-03T20:08:06;20.07;;;6.60;;
23410;SDS011;11878;51.774;7.220;2023-04-03T20:11:08;16.50;;;5.73;;
23410;SDS011;11878;51.774;7.220;2023-04-03T20:17:41;13.53;;;5.87;;
23410;SDS011;11878;51.774;7.220;2023-04-03T20:20:54;14.47;;;5.33;;
23410;SDS011;11878;51.774;7.220;2023-04-03T20:23:59;4.33;;;2.20;;
23410;SDS011;11878;51.774;7.220;2023-04-03T20:27:02;7.23;;;2.80;;
23410;SDS011;11878;51.774;7.220;2023-04-03T20:30:04;8.20;;;2.30;;
23410;SDS011;11878;51.774;7.220;2023-04-03T20:33:09;8.13;;;2.23;;
23410;SDS011;11878;51.774;7.220;2023-04-03T20:36:11;10.23;;;2.17;;
23410;SDS011;11878;51.774;7.220;2023-04-03T20:39:13;10.53;;;2.90;;
23410;SDS011;11878;51.774;7.220;2023-04-03T20:42:15;6.87;;;2.00;;
23410;SDS011;11878;51.774;7.220;2023-04-03T20:45:17;5.43;;;2.00;;
23410;SDS011;11878;51.774;7.220;2023-04-03T20:48:21;10.93;;;2.57;;
23410;SDS011;11878;51.774;7.220;2023-04-03T20:51:23;11.70;;;2.83;;
23410;SDS011;11878;51.774;7.220;2023-04-03T20:54:26;13.37;;;2.77;;
23410;SDS011;11878;51.774;7.220;2023-04-03T21:01:18;7.50;;;1.40;;
23410;SDS011;11878;51.774;7.220;2023-04-03T21:04:24;4.77;;;1.60;;
23410;SDS011;11878;51.774;7.220;2023-04-03T21:21:33;2.23;;;1.00;;
23410;SDS011;11878;51.774;7.220;2023-04-03T21:24:37;5.40;;;1.07;;
23410;SDS011;11878;51.774;7.220;2023-04-03T21:27:39;3.37;;;1.23;;
23410;SDS011;11878;51.774;7.220;2023-04-03T21:30:40;2.30;;;1.03;;
23410;SDS011;11878;51.774;7.220;2023-04-03T21:33:42;2.50;;;1.30;;
23410;SDS011;11878;51.774;7.220;2023-04-03T21:36:45;3.13;;;1.20;;
23410;SDS011;11878;51.774;7.220;2023-04-03T21:39:49;2.30;;;1.17;;
23410;SDS011;11878;51.774;7.220;2023-04-03T21:42:54;4.73;;;1.67;;
23410;SDS011;11878;51.774;7.220;2023-04-03T21:45:56;2.57;;;1.30;;
23410;SDS011;11878;51.774;7.220;2023-04-03T21:48:59;3.70;;;1.23;;
23410;SDS011;11878;51.774;7.220;2023-04-03T21:52:01;3.83;;;1.30;;
23410;SDS011;11878;51.774;7.220;2023-04-03T21:55:03;2.33;;;0.90;;
23410;SDS011;11878;51.774;7.220;2023-04-03T21:58:05;4.00;;;1.13;;
23410;SDS011;11878;51.774;7.220;2023-04-03T22:01:08;1.63;;;1.00;;
23410;SDS011;11878;51.774;7.220;2023-04-03T22:04:13;2.20;;;0.83;;
23410;SDS011;11878;51.774;7.220;2023-04-03T22:07:16;3.67;;;1.30;;
23410;SDS011;11878;51.774;7.220;2023-04-03T22:10:18;4.27;;;1.10;;
23410;SDS011;11878;51.774;7.220;2023-04-03T22:13:20;3.63;;;1.33;;
23410;SDS011;11878;51.774;7.220;2023-04-03T22:16:21;2.60;;;1.00;;
23410;SDS011;11878;51.774;7.220;2023-04-03T22:19:24;3.33;;;0.93;;
23410;SDS011;11878;51.774;7.220;2023-04-03T22:22:25;1.57;;;1.30;;
23410;SDS011;11878;51.774;7.220;2023-04-03T22:25:27;2.07;;;1.00;;
23410;SDS011;11878;51.774;7.220;2023-04-03T22:28:30;4.13;;;1.33;;
23410;SDS011;11878;51.774;7.220;2023-04-03T22:31:33;4.17;;;1.57;;
23410;SDS011;11878;51.774;7.220;2023-04-03T22:34:37;4.83;;;1.37;;
23410;SDS011;11878;51.774;7.220;2023-04-03T22:37:39;4.43;;;1.63;;
23410;SDS011;11878;51.774;7.220;2023-04-03T22:40:42;4.60;;;1.60;;
23410;SDS011;11878;51.774;7.220;2023-04-03T22:43:45;2.37;;;1.43;;
23410;SDS011;11878;51.774;7.220;2023-04-03T22:46:47;6.33;;;1.63;;
23410;SDS011;11878;51.774;7.220;2023-04-03T22:49:49;5.07;;;1.70;;
23410;SDS011;11878;51.774;7.220;2023-04-03T22:52:50;4.63;;;1.37;;
23410;SDS011;11878;51.774;7.220;2023-04-03T22:55:53;7.03;;;1.77;;
23410;SDS011;11878;51.774;7.220;2023-04-03T22:58:55;6.13;;;2.03;;
23410;SDS011;11878;51.774;7.220;2023-04-03T23:01:57;5.43;;;1.80;;
23410;SDS011;11878;51.774;7.220;2023-04-03T23:04:58;4.80;;;2.37;;
23410;SDS011;11878;51.774;7.220;2023-04-03T23:08:00;4.20;;;1.60;;
23410;SDS011;11878;51.774;7.220;2023-04-03T23:11:02;10.47;;;2.73;;
23410;SDS011;11878;51.774;7.220;2023-04-03T23:14:04;5.43;;;2.37;;
23410;SDS011;11878;51.774;7.220;2023-04-03T23:17:06;9.37;;;3.50;;
23410;SDS011;11878;51.774;7.220;2023-04-03T23:20:08;5.03;;;2.37;;
23410;SDS011;11878;51.774;7.220;2023-04-03T23:30:25;3.80;;;2.07;;
23410;SDS011;11878;51.774;7.220;2023-04-03T23:33:27;3.90;;;1.97;;
23410;SDS011;11878;51.774;7.220;2023-04-03T23:36:31;4.33;;;1.73;;
23410;SDS011;11878;51.774;7.220;2023-04-03T23:39:32;6.83;;;2.03;;
23410;SDS011;11878;51.774;7.220;2023-04-03T23:42:34;9.77;;;2.03;;
23410;SDS011;11878;51.774;7.220;2023-04-03T23:45:36;6.47;;;2.00;;
23410;SDS011;11878;51.774;7.220;2023-04-03T23:48:38;3.03;;;1.40;;
23410;SDS011;11878;51.774;7.220;2023-04-03T23:51:39;4.47;;;1.90;;
23410;SDS011;11878;51.774;7.220;2023-04-03T23:54:41;4.10;;;1.60;;
23410;SDS011;11878;51.774;7.220;2023-04-03T23:57:43;5.23;;;2.27;;
